Erenhot, China
Current Conditions -  °F | °C
As of 4:00 AM on Monday 22 Dec 2014 (Local Time) from ZBHH Reporting Station
Clear Clear  
Wind Chill: -13°   Ceiling: Unl
Heat Index:   Visibility: 6mi
Dew Point: -6°   Wind: 7mph
Humidity: 78%   Direction: 50°NE
Pressure: 30.27"   Gusts: NA
Location:  43.66°N, 111.96°E
Report Text: ZBHH 212000Z 05003MPS CAVOK M18/M21 Q1025 NOSIG
Loading
Personal Weather Stations






























Interactive Weather Map New forecast layout! Learn more

10-Day Weather Forecast

Advertisements
Track Severe Weather on mobile